sensor_id;sensor_type;location;lat;lon;timestamp;P1;durP1;ratioP1;P2;durP2;ratioP2
50309;SDS011;36207;51.850;21.698;2024-02-23T00:00:49;14.70;;;10.80;;
50309;SDS011;36207;51.850;21.698;2024-02-23T00:03:35;15.60;;;10.70;;
50309;SDS011;36207;51.850;21.698;2024-02-23T00:06:02;15.00;;;10.50;;
50309;SDS011;36207;51.850;21.698;2024-02-23T00:08:28;13.20;;;9.70;;
50309;SDS011;36207;51.850;21.698;2024-02-23T00:10:54;13.50;;;10.30;;
50309;SDS011;36207;51.850;21.698;2024-02-23T00:13:20;13.80;;;9.50;;
50309;SDS011;36207;51.850;21.698;2024-02-23T00:15:47;14.90;;;10.10;;
50309;SDS011;36207;51.850;21.698;2024-02-23T00:18:13;14.00;;;10.20;;
50309;SDS011;36207;51.850;21.698;2024-02-23T00:20:40;12.90;;;10.20;;
50309;SDS011;36207;51.850;21.698;2024-02-23T00:23:06;15.10;;;10.00;;
50309;SDS011;36207;51.850;21.698;2024-02-23T00:25:32;13.40;;;9.90;;
50309;SDS011;36207;51.850;21.698;2024-02-23T00:27:57;16.00;;;9.90;;
50309;SDS011;36207;51.850;21.698;2024-02-23T00:30:23;13.00;;;9.70;;
50309;SDS011;36207;51.850;21.698;2024-02-23T00:32:49;12.10;;;9.50;;
50309;SDS011;36207;51.850;21.698;2024-02-23T00:35:15;13.00;;;9.50;;
50309;SDS011;36207;51.850;21.698;2024-02-23T00:37:41;13.10;;;10.30;;
50309;SDS011;36207;51.850;21.698;2024-02-23T00:40:07;13.40;;;9.90;;
50309;SDS011;36207;51.850;21.698;2024-02-23T00:42:35;14.70;;;10.10;;
50309;SDS011;36207;51.850;21.698;2024-02-23T00:45:01;12.30;;;9.50;;
50309;SDS011;36207;51.850;21.698;2024-02-23T00:47:28;13.30;;;10.10;;
50309;SDS011;36207;51.850;21.698;2024-02-23T00:49:54;12.70;;;9.40;;
50309;SDS011;36207;51.850;21.698;2024-02-23T00:52:19;12.40;;;9.50;;
50309;SDS011;36207;51.850;21.698;2024-02-23T00:54:45;12.80;;;9.00;;
50309;SDS011;36207;51.850;21.698;2024-02-23T00:57:12;12.70;;;9.70;;
50309;SDS011;36207;51.850;21.698;2024-02-23T00:59:37;12.60;;;9.60;;
50309;SDS011;36207;51.850;21.698;2024-02-23T01:02:03;13.20;;;9.70;;
50309;SDS011;36207;51.850;21.698;2024-02-23T01:04:30;13.60;;;9.90;;
50309;SDS011;36207;51.850;21.698;2024-02-23T01:06:57;14.30;;;10.00;;
50309;SDS011;36207;51.850;21.698;2024-02-23T01:09:24;12.90;;;9.40;;
50309;SDS011;36207;51.850;21.698;2024-02-23T01:11:49;12.80;;;9.80;;
50309;SDS011;36207;51.850;21.698;2024-02-23T01:14:16;12.90;;;9.90;;
50309;SDS011;36207;51.850;21.698;2024-02-23T01:16:42;13.40;;;10.00;;
50309;SDS011;36207;51.850;21.698;2024-02-23T01:19:10;14.60;;;9.90;;
50309;SDS011;36207;51.850;21.698;2024-02-23T01:21:36;13.50;;;10.10;;
50309;SDS011;36207;51.850;21.698;2024-02-23T01:24:02;13.10;;;9.60;;
50309;SDS011;36207;51.850;21.698;2024-02-23T01:26:30;13.00;;;10.10;;
50309;SDS011;36207;51.850;21.698;2024-02-23T01:28:55;14.40;;;9.60;;
50309;SDS011;36207;51.850;21.698;2024-02-23T01:31:22;13.20;;;9.60;;
50309;SDS011;36207;51.850;21.698;2024-02-23T01:33:48;13.20;;;9.40;;
50309;SDS011;36207;51.850;21.698;2024-02-23T01:36:16;11.90;;;8.90;;
50309;SDS011;36207;51.850;21.698;2024-02-23T01:38:41;13.50;;;9.20;;
50309;SDS011;36207;51.850;21.698;2024-02-23T01:41:08;14.30;;;9.00;;
50309;SDS011;36207;51.850;21.698;2024-02-23T01:43:34;13.70;;;9.40;;
50309;SDS011;36207;51.850;21.698;2024-02-23T01:46:00;13.00;;;9.50;;
50309;SDS011;36207;51.850;21.698;2024-02-23T01:48:26;13.50;;;9.20;;
50309;SDS011;36207;51.850;21.698;2024-02-23T01:50:52;11.80;;;9.20;;
50309;SDS011;36207;51.850;21.698;2024-02-23T01:53:19;11.50;;;8.40;;
50309;SDS011;36207;51.850;21.698;2024-02-23T01:55:46;12.40;;;8.70;;
50309;SDS011;36207;51.850;21.698;2024-02-23T01:58:13;12.50;;;8.80;;
50309;SDS011;36207;51.850;21.698;2024-02-23T02:00:40;11.20;;;8.50;;
50309;SDS011;36207;51.850;21.698;2024-02-23T02:03:06;11.80;;;8.40;;
50309;SDS011;36207;51.850;21.698;2024-02-23T02:05:35;10.00;;;7.70;;
50309;SDS011;36207;51.850;21.698;2024-02-23T02:08:02;13.70;;;8.10;;
50309;SDS011;36207;51.850;21.698;2024-02-23T02:10:28;11.90;;;8.30;;
50309;SDS011;36207;51.850;21.698;2024-02-23T02:12:53;11.00;;;8.20;;
50309;SDS011;36207;51.850;21.698;2024-02-23T02:15:20;11.10;;;7.90;;
50309;SDS011;36207;51.850;21.698;2024-02-23T02:17:47;10.70;;;7.50;;
50309;SDS011;36207;51.850;21.698;2024-02-23T02:20:14;11.20;;;8.00;;
50309;SDS011;36207;51.850;21.698;2024-02-23T02:22:40;11.80;;;7.60;;
50309;SDS011;36207;51.850;21.698;2024-02-23T02:25:06;11.10;;;7.70;;
50309;SDS011;36207;51.850;21.698;2024-02-23T02:27:32;11.60;;;7.70;;
50309;SDS011;36207;51.850;21.698;2024-02-23T02:29:58;10.80;;;7.60;;
50309;SDS011;36207;51.850;21.698;2024-02-23T02:32:24;12.30;;;7.40;;
50309;SDS011;36207;51.850;21.698;2024-02-23T02:34:50;10.30;;;7.10;;
50309;SDS011;36207;51.850;21.698;2024-02-23T02:37:16;9.70;;;7.40;;
50309;SDS011;36207;51.850;21.698;2024-02-23T02:39:42;10.40;;;7.40;;
50309;SDS011;36207;51.850;21.698;2024-02-23T02:42:08;9.60;;;7.00;;
50309;SDS011;36207;51.850;21.698;2024-02-23T02:44:34;8.90;;;6.40;;
50309;SDS011;36207;51.850;21.698;2024-02-23T02:47:00;11.90;;;7.40;;
50309;SDS011;36207;51.850;21.698;2024-02-23T02:49:26;9.50;;;6.50;;
50309;SDS011;36207;51.850;21.698;2024-02-23T02:51:52;10.10;;;6.90;;
50309;SDS011;36207;51.850;21.698;2024-02-23T02:54:18;10.80;;;6.90;;
50309;SDS011;36207;51.850;21.698;2024-02-23T02:56:44;10.20;;;6.30;;
50309;SDS011;36207;51.850;21.698;2024-02-23T02:59:13;11.40;;;6.60;;
50309;SDS011;36207;51.850;21.698;2024-02-23T03:01:39;10.30;;;6.60;;
50309;SDS011;36207;51.850;21.698;2024-02-23T03:04:05;10.20;;;6.40;;
50309;SDS011;36207;51.850;21.698;2024-02-23T03:06:31;8.00;;;6.20;;
50309;SDS011;36207;51.850;21.698;2024-02-23T03:08:57;10.00;;;6.50;;
50309;SDS011;36207;51.850;21.698;2024-02-23T03:11:23;8.90;;;6.20;;
50309;SDS011;36207;51.850;21.698;2024-02-23T03:13:49;9.60;;;6.70;;
50309;SDS011;36207;51.850;21.698;2024-02-23T03:16:16;9.00;;;6.20;;
50309;SDS011;36207;51.850;21.698;2024-02-23T03:18:43;9.40;;;6.20;;
50309;SDS011;36207;51.850;21.698;2024-02-23T03:21:09;8.80;;;5.90;;
50309;SDS011;36207;51.850;21.698;2024-02-23T03:23:35;8.10;;;5.90;;
50309;SDS011;36207;51.850;21.698;2024-02-23T03:26:02;8.30;;;5.80;;
50309;SDS011;36207;51.850;21.698;2024-02-23T03:28:28;9.00;;;6.10;;
50309;SDS011;36207;51.850;21.698;2024-02-23T03:30:54;8.70;;;5.90;;
50309;SDS011;36207;51.850;21.698;2024-02-23T03:33:20;9.00;;;6.10;;
50309;SDS011;36207;51.850;21.698;2024-02-23T03:35:46;9.20;;;6.00;;
50309;SDS011;36207;51.850;21.698;2024-02-23T03:38:12;8.20;;;5.70;;
50309;SDS011;36207;51.850;21.698;2024-02-23T03:40:37;10.70;;;6.10;;
50309;SDS011;36207;51.850;21.698;2024-02-23T03:43:03;9.00;;;5.90;;
50309;SDS011;36207;51.850;21.698;2024-02-23T03:45:31;9.00;;;6.00;;
50309;SDS011;36207;51.850;21.698;2024-02-23T03:47:57;9.30;;;6.10;;
50309;SDS011;36207;51.850;21.698;2024-02-23T03:50:23;8.40;;;6.30;;
50309;SDS011;36207;51.850;21.698;2024-02-23T03:52:49;8.40;;;5.90;;
50309;SDS011;36207;51.850;21.698;2024-02-23T03:55:15;9.40;;;5.80;;
50309;SDS011;36207;51.850;21.698;2024-02-23T03:57:41;9.40;;;6.20;;
50309;SDS011;36207;51.850;21.698;2024-02-23T04:00:07;8.70;;;6.10;;
50309;SDS011;36207;51.850;21.698;2024-02-23T04:02:34;8.40;;;5.90;;
50309;SDS011;36207;51.850;21.698;2024-02-23T04:05:00;8.30;;;5.90;;
50309;SDS011;36207;51.850;21.698;2024-02-23T04:07:26;10.00;;;6.30;;
50309;SDS011;36207;51.850;21.698;2024-02-23T04:09:52;7.70;;;6.10;;
50309;SDS011;36207;51.850;21.698;2024-02-23T04:12:21;9.50;;;6.30;;
50309;SDS011;36207;51.850;21.698;2024-02-23T04:14:47;8.60;;;5.80;;
50309;SDS011;36207;51.850;21.698;2024-02-23T04:17:13;9.00;;;6.40;;
50309;SDS011;36207;51.850;21.698;2024-02-23T04:19:40;9.40;;;6.30;;
50309;SDS011;36207;51.850;21.698;2024-02-23T04:22:07;8.60;;;6.20;;
50309;SDS011;36207;51.850;21.698;2024-02-23T04:24:35;9.80;;;6.40;;
50309;SDS011;36207;51.850;21.698;2024-02-23T04:27:04;8.60;;;6.20;;
50309;SDS011;36207;51.850;21.698;2024-02-23T04:29:30;8.10;;;5.90;;
50309;SDS011;36207;51.850;21.698;2024-02-23T04:31:57;8.70;;;6.20;;
50309;SDS011;36207;51.850;21.698;2024-02-23T04:34:25;9.00;;;5.80;;
50309;SDS011;36207;51.850;21.698;2024-02-23T04:36:51;8.00;;;5.80;;
50309;SDS011;36207;51.850;21.698;2024-02-23T04:39:17;9.00;;;6.30;;
50309;SDS011;36207;51.850;21.698;2024-02-23T04:41:43;8.90;;;6.00;;
50309;SDS011;36207;51.850;21.698;2024-02-23T04:44:09;8.10;;;6.20;;
50309;SDS011;36207;51.850;21.698;2024-02-23T04:46:34;8.70;;;6.40;;
50309;SDS011;36207;51.850;21.698;2024-02-23T04:49:01;9.20;;;6.40;;
50309;SDS011;36207;51.850;21.698;2024-02-23T04:51:27;9.60;;;6.50;;
50309;SDS011;36207;51.850;21.698;2024-02-23T04:53:53;9.70;;;6.40;;
50309;SDS011;36207;51.850;21.698;2024-02-23T04:56:19;9.50;;;6.70;;
50309;SDS011;36207;51.850;21.698;2024-02-23T04:58:46;9.40;;;6.50;;
50309;SDS011;36207;51.850;21.698;2024-02-23T05:01:12;9.30;;;6.80;;
50309;SDS011;36207;51.850;21.698;2024-02-23T05:03:38;11.60;;;7.10;;
50309;SDS011;36207;51.850;21.698;2024-02-23T05:06:04;10.10;;;6.80;;
50309;SDS011;36207;51.850;21.698;2024-02-23T05:08:31;9.40;;;6.70;;
50309;SDS011;36207;51.850;21.698;2024-02-23T05:10:57;10.80;;;7.20;;
50309;SDS011;36207;51.850;21.698;2024-02-23T05:13:23;10.10;;;7.10;;
50309;SDS011;36207;51.850;21.698;2024-02-23T05:15:50;9.30;;;6.90;;
50309;SDS011;36207;51.850;21.698;2024-02-23T05:18:16;9.40;;;7.20;;
50309;SDS011;36207;51.850;21.698;2024-02-23T05:20:42;10.70;;;7.60;;
50309;SDS011;36207;51.850;21.698;2024-02-23T05:23:08;9.90;;;7.70;;
50309;SDS011;36207;51.850;21.698;2024-02-23T05:25:34;10.10;;;7.50;;
50309;SDS011;36207;51.850;21.698;2024-02-23T05:28:00;11.90;;;7.80;;
50309;SDS011;36207;51.850;21.698;2024-02-23T05:30:26;10.90;;;8.10;;
50309;SDS011;36207;51.850;21.698;2024-02-23T05:32:55;12.00;;;8.20;;
50309;SDS011;36207;51.850;21.698;2024-02-23T05:35:22;12.10;;;7.80;;
50309;SDS011;36207;51.850;21.698;2024-02-23T05:37:48;10.40;;;7.80;;
50309;SDS011;36207;51.850;21.698;2024-02-23T05:40:15;11.90;;;7.90;;
50309;SDS011;36207;51.850;21.698;2024-02-23T05:42:41;18.10;;;11.30;;
50309;SDS011;36207;51.850;21.698;2024-02-23T05:45:08;11.80;;;8.40;;
50309;SDS011;36207;51.850;21.698;2024-02-23T05:47:37;12.60;;;8.20;;
50309;SDS011;36207;51.850;21.698;2024-02-23T05:50:04;11.40;;;8.20;;
50309;SDS011;36207;51.850;21.698;2024-02-23T05:52:32;10.30;;;7.90;;
50309;SDS011;36207;51.850;21.698;2024-02-23T05:54:58;11.80;;;8.30;;
50309;SDS011;36207;51.850;21.698;2024-02-23T05:57:26;11.90;;;8.60;;
50309;SDS011;36207;51.850;21.698;2024-02-23T05:59:53;10.80;;;8.40;;
50309;SDS011;36207;51.850;21.698;2024-02-23T06:02:19;11.30;;;8.40;;
50309;SDS011;36207;51.850;21.698;2024-02-23T06:04:45;12.90;;;8.60;;
50309;SDS011;36207;51.850;21.698;2024-02-23T06:07:11;12.80;;;8.90;;
50309;SDS011;36207;51.850;21.698;2024-02-23T06:09:37;10.40;;;8.10;;
50309;SDS011;36207;51.850;21.698;2024-02-23T06:12:03;11.30;;;8.80;;
50309;SDS011;36207;51.850;21.698;2024-02-23T06:14:31;11.30;;;8.80;;
50309;SDS011;36207;51.850;21.698;2024-02-23T06:16:56;11.80;;;8.90;;
50309;SDS011;36207;51.850;21.698;2024-02-23T06:19:23;12.30;;;8.80;;
50309;SDS011;36207;51.850;21.698;2024-02-23T06:21:49;11.40;;;9.00;;
50309;SDS011;36207;51.850;21.698;2024-02-23T06:24:15;12.20;;;9.50;;
50309;SDS011;36207;51.850;21.698;2024-02-23T06:26:42;13.60;;;9.50;;
50309;SDS011;36207;51.850;21.698;2024-02-23T06:29:08;12.60;;;8.90;;
50309;SDS011;36207;51.850;21.698;2024-02-23T06:31:38;14.40;;;9.20;;
50309;SDS011;36207;51.850;21.698;2024-02-23T06:34:05;12.70;;;9.00;;
50309;SDS011;36207;51.850;21.698;2024-02-23T06:36:31;11.60;;;8.70;;
50309;SDS011;36207;51.850;21.698;2024-02-23T06:38:57;12.00;;;8.80;;
50309;SDS011;36207;51.850;21.698;2024-02-23T06:41:23;12.40;;;9.10;;
50309;SDS011;36207;51.850;21.698;2024-02-23T06:43:49;12.60;;;9.20;;
50309;SDS011;36207;51.850;21.698;2024-02-23T06:46:18;12.20;;;9.00;;
50309;SDS011;36207;51.850;21.698;2024-02-23T06:48:48;13.00;;;9.10;;
50309;SDS011;36207;51.850;21.698;2024-02-23T06:51:14;14.10;;;9.50;;
50309;SDS011;36207;51.850;21.698;2024-02-23T06:53:41;12.70;;;9.10;;
50309;SDS011;36207;51.850;21.698;2024-02-23T06:56:07;13.60;;;9.00;;
50309;SDS011;36207;51.850;21.698;2024-02-23T06:58:33;12.10;;;9.00;;
50309;SDS011;36207;51.850;21.698;2024-02-23T07:01:00;14.30;;;8.80;;
50309;SDS011;36207;51.850;21.698;2024-02-23T07:03:28;13.60;;;9.60;;
50309;SDS011;36207;51.850;21.698;2024-02-23T07:05:55;14.90;;;9.40;;
50309;SDS011;36207;51.850;21.698;2024-02-23T07:08:21;13.90;;;9.40;;
50309;SDS011;36207;51.850;21.698;2024-02-23T07:10:47;13.90;;;9.60;;
50309;SDS011;36207;51.850;21.698;2024-02-23T07:13:13;12.30;;;9.20;;
50309;SDS011;36207;51.850;21.698;2024-02-23T07:15:39;12.40;;;9.10;;
50309;SDS011;36207;51.850;21.698;2024-02-23T07:18:05;13.50;;;8.80;;
50309;SDS011;36207;51.850;21.698;2024-02-23T07:20:35;12.30;;;8.80;;
50309;SDS011;36207;51.850;21.698;2024-02-23T07:23:01;11.70;;;9.20;;
50309;SDS011;36207;51.850;21.698;2024-02-23T07:25:27;12.90;;;9.20;;
50309;SDS011;36207;51.850;21.698;2024-02-23T07:27:53;12.30;;;9.00;;
50309;SDS011;36207;51.850;21.698;2024-02-23T07:30:19;11.40;;;8.40;;
50309;SDS011;36207;51.850;21.698;2024-02-23T07:32:45;11.50;;;8.90;;
50309;SDS011;36207;51.850;21.698;2024-02-23T07:35:14;12.00;;;8.90;;
50309;SDS011;36207;51.850;21.698;2024-02-23T07:37:40;12.30;;;9.20;;
50309;SDS011;36207;51.850;21.698;2024-02-23T07:40:06;11.40;;;8.20;;
50309;SDS011;36207;51.850;21.698;2024-02-23T07:42:33;12.50;;;9.10;;
50309;SDS011;36207;51.850;21.698;2024-02-23T07:45:02;11.70;;;9.20;;
50309;SDS011;36207;51.850;21.698;2024-02-23T07:47:32;13.80;;;9.10;;
50309;SDS011;36207;51.850;21.698;2024-02-23T07:49:58;13.20;;;9.00;;
50309;SDS011;36207;51.850;21.698;2024-02-23T07:52:24;11.40;;;8.70;;
50309;SDS011;36207;51.850;21.698;2024-02-23T07:54:52;11.70;;;8.70;;
50309;SDS011;36207;51.850;21.698;2024-02-23T07:57:18;11.90;;;8.50;;
50309;SDS011;36207;51.850;21.698;2024-02-23T07:59:45;14.20;;;8.70;;
50309;SDS011;36207;51.850;21.698;2024-02-23T08:02:11;14.70;;;9.00;;
50309;SDS011;36207;51.850;21.698;2024-02-23T08:04:37;11.70;;;8.50;;
50309;SDS011;36207;51.850;21.698;2024-02-23T08:07:04;12.90;;;8.50;;
50309;SDS011;36207;51.850;21.698;2024-02-23T08:09:30;11.80;;;8.50;;
50309;SDS011;36207;51.850;21.698;2024-02-23T08:11:56;11.80;;;8.30;;
50309;SDS011;36207;51.850;21.698;2024-02-23T08:14:22;13.20;;;9.00;;
50309;SDS011;36207;51.850;21.698;2024-02-23T08:16:48;11.60;;;8.30;;
50309;SDS011;36207;51.850;21.698;2024-02-23T08:19:15;11.50;;;8.40;;
50309;SDS011;36207;51.850;21.698;2024-02-23T08:21:42;11.20;;;8.20;;
50309;SDS011;36207;51.850;21.698;2024-02-23T08:24:09;11.70;;;8.00;;
50309;SDS011;36207;51.850;21.698;2024-02-23T08:26:35;12.20;;;8.20;;
50309;SDS011;36207;51.850;21.698;2024-02-23T08:29:03;10.90;;;7.90;;
50309;SDS011;36207;51.850;21.698;2024-02-23T08:31:30;11.40;;;8.20;;
50309;SDS011;36207;51.850;21.698;2024-02-23T08:33:56;11.80;;;8.00;;
50309;SDS011;36207;51.850;21.698;2024-02-23T08:36:22;12.00;;;8.20;;
50309;SDS011;36207;51.850;21.698;2024-02-23T08:38:48;11.00;;;8.10;;
50309;SDS011;36207;51.850;21.698;2024-02-23T08:41:14;13.30;;;8.50;;
50309;SDS011;36207;51.850;21.698;2024-02-23T08:43:40;11.80;;;7.50;;
50309;SDS011;36207;51.850;21.698;2024-02-23T08:46:06;12.00;;;7.90;;
50309;SDS011;36207;51.850;21.698;2024-02-23T08:48:32;10.10;;;7.30;;
50309;SDS011;36207;51.850;21.698;2024-02-23T08:50:58;10.50;;;7.20;;
50309;SDS011;36207;51.850;21.698;2024-02-23T08:53:24;11.20;;;7.40;;
50309;SDS011;36207;51.850;21.698;2024-02-23T08:55:50;11.20;;;7.60;;
50309;SDS011;36207;51.850;21.698;2024-02-23T08:58:16;10.30;;;7.50;;
50309;SDS011;36207;51.850;21.698;2024-02-23T09:00:42;10.90;;;7.50;;
50309;SDS011;36207;51.850;21.698;2024-02-23T09:03:07;10.80;;;7.60;;
50309;SDS011;36207;51.850;21.698;2024-02-23T09:05:33;10.80;;;7.30;;
50309;SDS011;36207;51.850;21.698;2024-02-23T09:08:00;11.20;;;7.70;;
50309;SDS011;36207;51.850;21.698;2024-02-23T09:10:25;10.20;;;7.30;;
50309;SDS011;36207;51.850;21.698;2024-02-23T09:12:51;10.50;;;7.10;;
50309;SDS011;36207;51.850;21.698;2024-02-23T09:15:17;10.10;;;7.30;;
50309;SDS011;36207;51.850;21.698;2024-02-23T09:17:43;10.10;;;7.10;;
50309;SDS011;36207;51.850;21.698;2024-02-23T09:20:09;11.20;;;7.70;;
50309;SDS011;36207;51.850;21.698;2024-02-23T09:22:36;10.60;;;7.40;;
50309;SDS011;36207;51.850;21.698;2024-02-23T09:25:02;14.00;;;7.80;;
50309;SDS011;36207;51.850;21.698;2024-02-23T09:27:31;10.40;;;6.90;;
50309;SDS011;36207;51.850;21.698;2024-02-23T09:29:57;11.50;;;7.50;;
50309;SDS011;36207;51.850;21.698;2024-02-23T09:32:24;10.90;;;7.70;;
50309;SDS011;36207;51.850;21.698;2024-02-23T09:34:50;10.40;;;7.60;;
50309;SDS011;36207;51.850;21.698;2024-02-23T09:37:16;13.60;;;7.80;;
50309;SDS011;36207;51.850;21.698;2024-02-23T09:39:42;10.90;;;7.50;;
50309;SDS011;36207;51.850;21.698;2024-02-23T09:42:09;11.50;;;8.00;;
50309;SDS011;36207;51.850;21.698;2024-02-23T09:44:39;10.20;;;7.10;;
50309;SDS011;36207;51.850;21.698;2024-02-23T09:47:07;12.00;;;7.80;;
50309;SDS011;36207;51.850;21.698;2024-02-23T09:49:37;13.10;;;7.50;;
50309;SDS011;36207;51.850;21.698;2024-02-23T09:52:06;12.90;;;8.00;;
50309;SDS011;36207;51.850;21.698;2024-02-23T09:54:33;12.10;;;8.00;;
50309;SDS011;36207;51.850;21.698;2024-02-23T09:57:00;12.70;;;7.80;;
50309;SDS011;36207;51.850;21.698;2024-02-23T09:59:31;13.10;;;8.60;;
50309;SDS011;36207;51.850;21.698;2024-02-23T10:01:59;12.20;;;8.10;;
50309;SDS011;36207;51.850;21.698;2024-02-23T10:04:26;10.70;;;7.90;;
50309;SDS011;36207;51.850;21.698;2024-02-23T10:06:55;12.10;;;8.30;;
50309;SDS011;36207;51.850;21.698;2024-02-23T10:09:21;12.20;;;7.80;;
50309;SDS011;36207;51.850;21.698;2024-02-23T10:11:53;11.80;;;7.50;;
50309;SDS011;36207;51.850;21.698;2024-02-23T10:14:20;11.80;;;8.40;;
50309;SDS011;36207;51.850;21.698;2024-02-23T10:16:47;12.40;;;8.30;;
50309;SDS011;36207;51.850;21.698;2024-02-23T10:19:14;13.10;;;8.40;;
50309;SDS011;36207;51.850;21.698;2024-02-23T10:21:40;13.40;;;7.90;;
50309;SDS011;36207;51.850;21.698;2024-02-23T10:24:06;11.60;;;8.00;;
50309;SDS011;36207;51.850;21.698;2024-02-23T10:26:32;10.80;;;7.70;;
50309;SDS011;36207;51.850;21.698;2024-02-23T10:28:58;12.60;;;8.00;;
50309;SDS011;36207;51.850;21.698;2024-02-23T10:31:24;11.70;;;8.00;;
50309;SDS011;36207;51.850;21.698;2024-02-23T10:33:50;13.00;;;8.50;;
50309;SDS011;36207;51.850;21.698;2024-02-23T10:36:18;13.70;;;8.50;;
50309;SDS011;36207;51.850;21.698;2024-02-23T10:38:45;12.30;;;8.00;;
50309;SDS011;36207;51.850;21.698;2024-02-23T10:41:14;12.90;;;8.30;;
50309;SDS011;36207;51.850;21.698;2024-02-23T10:43:44;13.20;;;8.50;;
50309;SDS011;36207;51.850;21.698;2024-02-23T10:46:12;13.60;;;8.90;;
50309;SDS011;36207;51.850;21.698;2024-02-23T10:48:41;13.20;;;8.90;;
50309;SDS011;36207;51.850;21.698;2024-02-23T10:51:08;12.30;;;8.40;;
50309;SDS011;36207;51.850;21.698;2024-02-23T10:53:38;11.80;;;8.30;;
50309;SDS011;36207;51.850;21.698;2024-02-23T10:56:05;12.90;;;8.90;;
50309;SDS011;36207;51.850;21.698;2024-02-23T10:58:33;15.40;;;8.70;;
50309;SDS011;36207;51.850;21.698;2024-02-23T11:01:00;12.30;;;8.80;;
50309;SDS011;36207;51.850;21.698;2024-02-23T11:03:29;13.00;;;8.80;;
50309;SDS011;36207;51.850;21.698;2024-02-23T11:05:57;14.00;;;8.80;;
50309;SDS011;36207;51.850;21.698;2024-02-23T11:08:22;13.40;;;8.80;;
50309;SDS011;36207;51.850;21.698;2024-02-23T11:10:49;16.50;;;9.80;;
50309;SDS011;36207;51.850;21.698;2024-02-23T11:13:17;13.20;;;9.50;;
50309;SDS011;36207;51.850;21.698;2024-02-23T11:15:44;13.50;;;9.20;;
50309;SDS011;36207;51.850;21.698;2024-02-23T11:21:10;13.20;;;8.80;;
50309;SDS011;36207;51.850;21.698;2024-02-23T11:23:43;12.90;;;8.80;;
50309;SDS011;36207;51.850;21.698;2024-02-23T11:26:11;16.10;;;9.70;;
50309;SDS011;36207;51.850;21.698;2024-02-23T11:28:48;13.00;;;9.10;;
50309;SDS011;36207;51.850;21.698;2024-02-23T11:31:15;12.70;;;8.40;;
50309;SDS011;36207;51.850;21.698;2024-02-23T11:33:55;13.90;;;8.80;;
50309;SDS011;36207;51.850;21.698;2024-02-23T11:36:34;14.20;;;8.60;;
50309;SDS011;36207;51.850;21.698;2024-02-23T11:39:01;12.20;;;8.60;;
50309;SDS011;36207;51.850;21.698;2024-02-23T11:41:28;13.60;;;8.50;;
50309;SDS011;36207;51.850;21.698;2024-02-23T11:43:55;13.70;;;8.60;;
50309;SDS011;36207;51.850;21.698;2024-02-23T11:46:22;12.70;;;9.20;;
50309;SDS011;36207;51.850;21.698;2024-02-23T11:48:48;12.90;;;8.00;;
50309;SDS011;36207;51.850;21.698;2024-02-23T11:51:21;12.80;;;8.50;;
50309;SDS011;36207;51.850;21.698;2024-02-23T11:53:48;12.70;;;8.20;;
50309;SDS011;36207;51.850;21.698;2024-02-23T11:56:15;10.40;;;7.80;;
50309;SDS011;36207;51.850;21.698;2024-02-23T11:58:41;11.80;;;8.20;;
50309;SDS011;36207;51.850;21.698;2024-02-23T12:01:08;11.70;;;7.90;;
50309;SDS011;36207;51.850;21.698;2024-02-23T12:03:34;12.70;;;8.40;;
50309;SDS011;36207;51.850;21.698;2024-02-23T12:06:00;11.20;;;8.20;;
50309;SDS011;36207;51.850;21.698;2024-02-23T12:08:27;10.80;;;7.90;;
50309;SDS011;36207;51.850;21.698;2024-02-23T12:10:57;12.10;;;7.50;;
50309;SDS011;36207;51.850;21.698;2024-02-23T12:13:25;11.50;;;7.90;;
50309;SDS011;36207;51.850;21.698;2024-02-23T12:15:52;12.00;;;8.00;;
50309;SDS011;36207;51.850;21.698;2024-02-23T12:18:22;11.50;;;8.00;;
50309;SDS011;36207;51.850;21.698;2024-02-23T12:21:01;13.40;;;7.40;;
50309;SDS011;36207;51.850;21.698;2024-02-23T12:23:43;10.30;;;7.70;;
50309;SDS011;36207;51.850;21.698;2024-02-23T12:26:12;11.10;;;7.80;;
50309;SDS011;36207;51.850;21.698;2024-02-23T12:28:39;10.60;;;7.70;;
50309;SDS011;36207;51.850;21.698;2024-02-23T12:31:06;11.50;;;7.40;;
50309;SDS011;36207;51.850;21.698;2024-02-23T12:33:33;11.10;;;7.60;;
50309;SDS011;36207;51.850;21.698;2024-02-23T12:36:04;12.40;;;8.10;;
50309;SDS011;36207;51.850;21.698;2024-02-23T12:38:31;11.40;;;7.60;;
50309;SDS011;36207;51.850;21.698;2024-02-23T12:40:57;9.90;;;7.40;;
50309;SDS011;36207;51.850;21.698;2024-02-23T12:43:24;12.00;;;7.40;;
50309;SDS011;36207;51.850;21.698;2024-02-23T12:45:51;10.00;;;7.50;;
50309;SDS011;36207;51.850;21.698;2024-02-23T12:48:18;10.40;;;7.40;;
50309;SDS011;36207;51.850;21.698;2024-02-23T12:50:45;10.10;;;7.10;;
50309;SDS011;36207;51.850;21.698;2024-02-23T12:53:31;10.00;;;7.00;;
50309;SDS011;36207;51.850;21.698;2024-02-23T12:56:05;11.00;;;7.70;;
50309;SDS011;36207;51.850;21.698;2024-02-23T12:58:34;11.30;;;7.50;;
50309;SDS011;36207;51.850;21.698;2024-02-23T13:01:01;11.40;;;7.80;;
50309;SDS011;36207;51.850;21.698;2024-02-23T13:03:28;10.90;;;7.30;;
50309;SDS011;36207;51.850;21.698;2024-02-23T13:05:54;10.30;;;7.10;;
50309;SDS011;36207;51.850;21.698;2024-02-23T13:08:22;11.00;;;7.50;;
50309;SDS011;36207;51.850;21.698;2024-02-23T13:10:49;9.60;;;7.00;;
50309;SDS011;36207;51.850;21.698;2024-02-23T13:13:16;9.70;;;7.20;;
50309;SDS011;36207;51.850;21.698;2024-02-23T13:15:43;11.90;;;7.50;;
50309;SDS011;36207;51.850;21.698;2024-02-23T13:18:09;11.20;;;7.00;;
50309;SDS011;36207;51.850;21.698;2024-02-23T13:20:36;10.50;;;6.50;;
50309;SDS011;36207;51.850;21.698;2024-02-23T13:23:03;10.80;;;7.00;;
50309;SDS011;36207;51.850;21.698;2024-02-23T13:25:29;12.40;;;8.80;;
50309;SDS011;36207;51.850;21.698;2024-02-23T13:27:55;14.30;;;9.70;;
50309;SDS011;36207;51.850;21.698;2024-02-23T13:30:21;13.20;;;8.60;;
50309;SDS011;36207;51.850;21.698;2024-02-23T13:32:47;12.90;;;7.80;;
50309;SDS011;36207;51.850;21.698;2024-02-23T13:35:13;10.60;;;7.20;;
50309;SDS011;36207;51.850;21.698;2024-02-23T13:37:40;9.70;;;6.80;;
50309;SDS011;36207;51.850;21.698;2024-02-23T13:40:08;9.80;;;7.00;;
50309;SDS011;36207;51.850;21.698;2024-02-23T13:42:35;11.50;;;7.10;;
50309;SDS011;36207;51.850;21.698;2024-02-23T13:45:07;9.50;;;6.70;;
50309;SDS011;36207;51.850;21.698;2024-02-23T13:47:34;11.80;;;7.00;;
50309;SDS011;36207;51.850;21.698;2024-02-23T13:50:01;11.70;;;7.10;;
50309;SDS011;36207;51.850;21.698;2024-02-23T13:52:28;10.10;;;7.20;;
50309;SDS011;36207;51.850;21.698;2024-02-23T13:54:55;11.40;;;6.80;;
50309;SDS011;36207;51.850;21.698;2024-02-23T13:57:22;11.20;;;7.30;;
50309;SDS011;36207;51.850;21.698;2024-02-23T13:59:48;9.70;;;6.90;;
50309;SDS011;36207;51.850;21.698;2024-02-23T14:02:14;12.20;;;7.40;;
50309;SDS011;36207;51.850;21.698;2024-02-23T14:04:40;12.10;;;7.80;;
50309;SDS011;36207;51.850;21.698;2024-02-23T14:07:06;11.00;;;7.60;;
50309;SDS011;36207;51.850;21.698;2024-02-23T14:09:33;10.20;;;7.50;;
50309;SDS011;36207;51.850;21.698;2024-02-23T14:11:59;9.80;;;7.40;;
50309;SDS011;36207;51.850;21.698;2024-02-23T14:14:25;10.10;;;7.50;;
50309;SDS011;36207;51.850;21.698;2024-02-23T14:16:51;10.40;;;6.90;;
50309;SDS011;36207;51.850;21.698;2024-02-23T14:19:17;10.00;;;7.00;;
50309;SDS011;36207;51.850;21.698;2024-02-23T14:21:46;11.10;;;7.50;;
50309;SDS011;36207;51.850;21.698;2024-02-23T14:24:14;12.20;;;7.60;;